Time;durP1;ratioP1;P1;durP2;ratioP2;P2;SDS_P1;SDS_P2;PMS_P1;PMS_P2;Temp;Humidity;BMP_temperature;BMP_pressure;BME280_temperature;BME280_humidity;BME280_pressure;Samples;Min_cycle;Max_cycle;Signal;HPM_P1;HPM_P2
2022/12/06 05:00:26;;;;;;;22.43;18.90;;;5.60;99.90;;;;;;6177823;22;20375;31
2022/12/06 05:02:54;;;;;;;20.53;18.50;;;5.60;99.90;;;;;;6157834;23;20401;-62
2022/12/06 05:05:20;;;;;;;25.10;19.80;;;5.60;99.90;;;;;;6157959;23;20472;-62
2022/12/06 05:07:47;;;;;;;21.03;19.03;;;5.60;99.90;;;;;;6158764;23;20414;-62
2022/12/06 05:10:15;;;;;;;21.03;18.97;;;5.60;99.90;;;;;;6158202;23;20753;-62
2022/12/06 05:12:41;;;;;;;20.13;18.00;;;5.60;99.90;;;;;;6157529;23;20968;-62
2022/12/06 05:15:09;;;;;;;20.07;18.10;;;5.60;99.90;;;;;;6157554;23;20970;-62
2022/12/06 05:17:36;;;;;;;20.03;18.03;;;5.70;99.90;;;;;;6157917;23;20418;-63
2022/12/06 05:20:04;;;;;;;20.23;18.23;;;5.70;99.90;;;;;;6157749;23;20417;-62
2022/12/06 05:22:32;;;;;;;20.20;18.20;;;5.70;99.90;;;;;;6157693;23;20437;-61
2022/12/06 05:24:59;;;;;;;19.40;17.50;;;5.70;99.90;;;;;;6157881;23;20413;-62
2022/12/06 05:27:26;;;;;;;20.47;18.27;;;5.80;99.90;;;;;;6157968;23;20414;-62
2022/12/06 05:29:52;;;;;;;19.80;17.90;;;5.80;99.90;;;;;;6157637;23;20484;-62
2022/12/06 05:32:19;;;;;;;19.70;17.77;;;5.80;99.90;;;;;;6157737;23;20434;-62
2022/12/06 05:34:45;;;;;;;21.10;18.97;;;5.80;99.90;;;;;;6157736;23;20418;-62
2022/12/06 05:37:13;;;;;;;21.63;19.47;;;5.70;99.90;;;;;;6157718;23;20418;-63
2022/12/06 05:39:40;;;;;;;20.13;18.10;;;5.60;99.90;;;;;;6157642;23;20409;-62
2022/12/06 05:42:07;;;;;;;22.37;20.20;;;5.60;99.90;;;;;;6157654;23;20488;-62
2022/12/06 05:44:33;;;;;;;20.43;18.43;;;5.60;99.90;;;;;;6158070;23;20413;-62
2022/12/06 05:47:00;;;;;;;21.60;19.47;;;5.50;99.90;;;;;;6157837;23;20413;-62
2022/12/06 05:49:27;;;;;;;22.20;20.10;;;5.50;99.90;;;;;;6157505;23;20484;-61
2022/12/06 05:51:54;;;;;;;23.77;21.37;;;5.40;99.90;;;;;;6157448;23;20449;-62
2022/12/06 05:54:22;;;;;;;23.63;21.17;;;5.40;99.90;;;;;;6157625;23;20413;-63
2022/12/06 05:56:49;;;;;;;22.27;20.03;;;5.40;99.90;;;;;;6162908;23;20480;-62
2022/12/06 05:59:16;;;;;;;22.50;20.30;;;5.40;99.90;;;;;;6164956;23;20413;-62
2022/12/06 06:01:43;;;;;;;22.70;20.37;;;5.40;99.90;;;;;;6165090;23;20444;-62
2022/12/06 06:04:10;;;;;;;22.73;20.30;;;5.40;99.90;;;;;;6159226;23;20409;-62
2022/12/06 06:06:36;;;;;;;26.93;21.97;;;5.40;99.90;;;;;;6158065;23;20413;-62
2022/12/06 06:09:03;;;;;;;22.67;20.37;;;5.40;99.90;;;;;;6157843;23;20530;-62
2022/12/06 06:11:31;;;;;;;22.90;20.50;;;5.40;99.90;;;;;;6158892;23;20437;-62
2022/12/06 06:13:58;;;;;;;21.07;19.13;;;5.40;99.90;;;;;;6159476;23;20543;-62
2022/12/06 06:16:24;;;;;;;21.33;19.30;;;5.40;99.90;;;;;;6157981;23;20488;-62
2022/12/06 06:18:51;;;;;;;20.83;18.83;;;5.40;99.90;;;;;;6158602;23;20417;-62
2022/12/06 06:21:18;;;;;;;20.23;18.13;;;5.50;99.90;;;;;;6157519;23;20430;-62
2022/12/06 06:23:45;;;;;;;20.27;18.27;;;5.50;99.90;;;;;;6158009;23;20417;-62
2022/12/06 06:26:12;;;;;;;18.63;16.80;;;5.60;99.90;;;;;;6157587;23;20743;-62
2022/12/06 06:28:40;;;;;;;18.77;16.90;;;5.60;99.90;;;;;;6158454;23;20414;-61
2022/12/06 06:31:07;;;;;;;19.80;17.90;;;5.60;99.90;;;;;;6157923;23;20492;-62
2022/12/06 06:33:35;;;;;;;19.47;17.57;;;5.60;99.90;;;;;;6157678;23;20414;-62
2022/12/06 06:36:01;;;;;;;20.33;18.33;;;5.60;99.90;;;;;;6157905;23;20484;-61
2022/12/06 06:38:28;;;;;;;21.60;19.40;;;5.60;99.90;;;;;;6158097;23;20414;-65
2022/12/06 06:40:55;;;;;;;24.10;21.50;;;5.50;99.90;;;;;;6157016;23;21025;-62
2022/12/06 06:43:22;;;;;;;23.67;21.17;;;5.50;99.90;;;;;;6157440;23;20441;-62
2022/12/06 06:45:54;;;;;;;21.83;19.63;;;5.50;99.90;;;;;;6157474;23;20517;-61
2022/12/06 06:48:21;;;;;;;22.07;19.70;;;5.50;99.90;;;;;;6157298;23;20738;-62
2022/12/06 06:50:48;;;;;;;20.37;18.40;;;5.60;99.90;;;;;;6157335;23;20441;-62
2022/12/06 06:53:15;;;;;;;21.03;18.90;;;5.60;99.90;;;;;;6159096;23;20413;-62
2022/12/06 06:55:43;;;;;;;20.50;18.53;;;5.60;99.90;;;;;;6158753;23;20413;-62
2022/12/06 06:58:09;;;;;;;20.30;18.40;;;5.60;99.90;;;;;;6157930;23;20420;-62
2022/12/06 07:00:36;;;;;;;21.70;19.57;;;5.60;99.90;;;;;;6157132;23;20446;-62
2022/12/06 07:03:04;;;;;;;19.70;17.80;;;5.60;99.90;;;;;;6157574;23;20398;-62
2022/12/06 07:05:31;;;;;;;19.80;17.90;;;5.60;99.90;;;;;;6157419;23;20530;-62
2022/12/06 07:07:58;;;;;;;19.63;17.60;;;5.70;99.90;;;;;;6157414;23;20488;-62
2022/12/06 07:10:26;;;;;;;17.07;15.37;;;5.70;99.90;;;;;;6157016;23;20442;-62
2022/12/06 07:12:53;;;;;;;18.83;16.83;;;5.70;99.90;;;;;;6157023;23;20414;-62
2022/12/06 07:15:20;;;;;;;17.47;15.90;;;5.70;99.90;;;;;;6157294;23;20497;-62
2022/12/06 07:17:46;;;;;;;16.73;15.20;;;5.70;99.90;;;;;;6156876;23;20414;-62
2022/12/06 07:20:15;;;;;;;17.83;16.17;;;5.70;99.90;;;;;;6156206;23;20410;-62
2022/12/06 07:22:41;;;;;;;16.37;14.97;;;5.70;99.90;;;;;;6156281;23;20468;-61
2022/12/06 07:25:09;;;;;;;14.20;12.80;;;5.70;99.90;;;;;;6156169;23;20746;-61
2022/12/06 07:27:35;;;;;;;13.97;12.77;;;5.70;99.90;;;;;;6156473;23;20484;-63
2022/12/06 07:30:02;;;;;;;13.80;12.40;;;5.70;99.90;;;;;;6157351;23;20813;-61
2022/12/06 07:32:29;;;;;;;13.23;12.03;;;5.70;99.90;;;;;;6155987;23;20961;-61
2022/12/06 07:34:56;;;;;;;12.70;11.70;;;5.70;99.90;;;;;;6156158;23;20921;-61
2022/12/06 07:37:23;;;;;;;13.50;12.40;;;5.70;99.90;;;;;;6156570;23;20492;-61
2022/12/06 07:39:50;;;;;;;11.70;10.60;;;5.70;99.90;;;;;;6156386;23;20464;-62
2022/12/06 07:45:12;;;;;;;11.40;10.50;;;5.70;99.90;;;;;;6104702;23;20449;-61
2022/12/06 07:47:40;;;;;;;12.00;11.00;;;5.70;99.90;;;;;;6157161;23;20476;-62
2022/12/06 07:50:11;;;;;;;12.63;11.47;;;5.70;99.90;;;;;;6156805;23;20437;-61
2022/12/06 07:52:39;;;;;;;11.73;10.73;;;5.70;99.90;;;;;;6157027;23;20768;-61
2022/12/06 07:55:07;;;;;;;11.20;10.30;;;5.70;99.90;;;;;;6156855;23;20464;-62
2022/12/06 07:57:34;;;;;;;9.73;8.93;;;5.70;99.90;;;;;;6156794;23;20414;-63
2022/12/06 08:00:01;;;;;;;9.90;9.20;;;5.80;99.90;;;;;;6157082;23;20409;-62
2022/12/06 08:02:28;;;;;;;10.10;9.30;;;5.80;99.90;;;;;;6156435;23;20469;-61
2022/12/06 08:04:57;;;;;;;9.23;8.53;;;5.80;99.90;;;;;;6156193;23;20899;-61
2022/12/06 08:07:24;;;;;;;8.70;8.00;;;5.80;99.90;;;;;;6156532;23;20441;-62
2022/12/06 08:09:53;;;;;;;9.33;8.60;;;5.80;99.90;;;;;;6156288;23;20464;-61
2022/12/06 08:12:21;;;;;;;11.47;10.50;;;5.90;99.90;;;;;;6156269;23;20440;-61
2022/12/06 08:14:47;;;;;;;11.60;10.60;;;5.90;99.90;;;;;;6155978;23;20413;-62
2022/12/06 08:17:15;;;;;;;12.60;11.40;;;5.90;99.90;;;;;;6155598;23;20448;-62
2022/12/06 08:19:41;;;;;;;11.57;10.63;;;5.90;99.90;;;;;;6156114;23;20414;-62
2022/12/06 08:22:08;;;;;;;12.37;11.17;;;5.90;99.90;;;;;;6156231;23;20433;-62
2022/12/06 08:24:35;;;;;;;12.13;11.03;;;5.90;99.90;;;;;;6155985;23;20471;-63
2022/12/06 08:27:03;;;;;;;12.67;11.67;;;5.90;99.90;;;;;;6155847;23;20898;-63
2022/12/06 08:29:29;;;;;;;12.00;11.00;;;5.90;99.90;;;;;;6157151;23;20414;-62
2022/12/06 08:31:56;;;;;;;12.67;11.50;;;6.00;99.90;;;;;;6156864;23;20448;-62
2022/12/06 08:34:22;;;;;;;12.13;11.13;;;6.00;99.90;;;;;;6157522;23;20444;-62
2022/12/06 08:36:49;;;;;;;12.97;12.03;;;5.90;99.90;;;;;;6156141;23;20527;-62
2022/12/06 08:39:16;;;;;;;13.90;12.77;;;5.90;99.90;;;;;;6156173;23;20464;-62
2022/12/06 08:42:02;;;;;;;14.30;13.00;;;5.80;99.90;;;;;;6155863;23;20436;-62
2022/12/06 08:44:31;;;;;;;14.87;13.40;;;5.80;99.90;;;;;;6156344;23;20402;-62
2022/12/06 08:46:59;;;;;;;14.47;13.27;;;5.80;99.90;;;;;;6166198;23;20476;-62
2022/12/06 08:49:27;;;;;;;14.10;12.90;;;5.90;99.90;;;;;;6156114;23;20414;-62
2022/12/06 08:51:54;;;;;;;16.40;14.90;;;5.90;99.90;;;;;;6155623;23;20950;-62
2022/12/06 08:54:23;;;;;;;15.30;14.00;;;5.90;99.90;;;;;;6156221;23;20413;-62
2022/12/06 08:56:49;;;;;;;15.13;13.90;;;5.90;99.90;;;;;;6156151;23;20414;-62
2022/12/06 08:59:17;;;;;;;16.73;15.23;;;5.90;99.90;;;;;;6156109;23;20414;-62
2022/12/06 09:01:45;;;;;;;16.70;15.20;;;6.00;99.90;;;;;;6156211;23;20441;-62
2022/12/06 09:04:12;;;;;;;17.43;15.83;;;6.00;99.90;;;;;;6156805;23;20429;-62
2022/12/06 09:06:40;;;;;;;19.17;17.17;;;6.00;99.90;;;;;;6157902;23;20413;-62
2022/12/06 09:09:08;;;;;;;18.00;16.40;;;6.00;99.90;;;;;;6157738;23;20464;-62
2022/12/06 09:11:35;;;;;;;17.80;16.10;;;6.00;99.90;;;;;;6157685;23;20858;-62
2022/12/06 09:14:02;;;;;;;18.90;17.00;;;6.00;99.90;;;;;;6157980;23;20448;-62
2022/12/06 09:16:29;;;;;;;19.20;17.60;;;6.00;99.90;;;;;;6157258;23;20723;-62
2022/12/06 09:18:57;;;;;;;20.13;18.23;;;6.00;99.90;;;;;;6157608;23;20501;-62
2022/12/06 09:21:28;;;;;;;19.83;17.90;;;6.10;99.90;;;;;;6157538;23;20433;-62
2022/12/06 09:23:56;;;;;;;20.63;18.83;;;6.10;99.90;;;;;;6157612;23;20398;-62
2022/12/06 09:26:24;;;;;;;20.13;18.33;;;6.10;99.90;;;;;;6157666;23;20413;-62
2022/12/06 09:28:53;;;;;;;21.17;19.17;;;6.10;99.90;;;;;;6157555;23;20468;-62
2022/12/06 09:31:19;;;;;;;20.80;18.90;;;6.10;99.90;;;;;;6157168;23;20445;-62
2022/12/06 09:33:47;;;;;;;22.97;20.70;;;6.10;99.90;;;;;;6157706;23;20480;-62
2022/12/06 09:36:18;;;;;;;24.27;21.73;;;6.00;99.90;;;;;;6157366;23;20414;-62
2022/12/06 09:38:47;;;;;;;23.90;21.50;;;6.00;99.90;;;;;;6157561;23;20401;-62
2022/12/06 09:41:28;;;;;;;28.47;22.50;;;5.90;99.90;;;;;;6157291;23;20542;-62
2022/12/06 09:44:12;;;;;;;24.30;21.70;;;5.90;99.90;;;;;;6157046;23;20731;-62
2022/12/06 09:46:53;;;;;;;23.27;20.97;;;5.90;99.90;;;;;;6157588;23;20401;-62
2022/12/06 09:49:29;;;;;;;23.10;20.13;;;6.00;99.90;;;;;;6157516;23;20486;-63
2022/12/06 09:52:21;;;;;;;23.13;20.90;;;6.00;99.90;;;;;;6156906;23;20477;-62
2022/12/06 09:55:07;;;;;;;22.20;20.10;;;6.10;99.90;;;;;;6152931;23;20418;-62
2022/12/06 09:57:42;;;;;;;19.93;17.93;;;6.10;99.90;;;;;;6157426;23;20402;-62
2022/12/06 10:00:12;;;;;;;18.77;16.97;;;6.20;99.90;;;;;;6157384;23;20397;-63
2022/12/06 10:03:35;;;;;;;18.17;16.47;;;6.20;99.90;;;;;;6157259;23;20394;-63
2022/12/06 10:06:04;;;;;;;17.80;15.57;;;6.20;99.90;;;;;;6038390;23;20406;-62
2022/12/06 10:08:54;;;;;;;18.53;16.83;;;6.10;99.90;;;;;;6151745;23;20414;-63
2022/12/06 10:11:35;;;;;;;20.27;17.80;;;6.10;99.90;;;;;;6156755;23;20471;-61
2022/12/06 10:14:12;;;;;;;18.10;16.50;;;6.10;99.90;;;;;;6157329;23;20397;-62
2022/12/06 10:16:51;;;;;;;18.23;16.43;;;6.00;99.90;;;;;;6156300;23;20401;-63
2022/12/06 10:19:27;;;;;;;18.77;16.90;;;6.10;99.90;;;;;;6157407;23;20432;-62
2022/12/06 10:22:08;;;;;;;17.97;16.10;;;6.10;99.90;;;;;;6156993;23;20742;-62
2022/12/06 10:24:48;;;;;;;18.10;16.27;;;6.10;99.90;;;;;;6156881;23;20456;-62
2022/12/06 10:27:22;;;;;;;16.93;15.23;;;6.00;99.90;;;;;;6156460;23;20930;-62
2022/12/06 10:29:56;;;;;;;17.60;15.90;;;6.00;99.90;;;;;;6156911;23;20398;-61
2022/12/06 10:32:38;;;;;;;15.20;13.80;;;6.00;99.90;;;;;;6156347;23;20930;-62
2022/12/06 10:35:16;;;;;;;15.33;13.70;;;6.00;99.90;;;;;;6156895;23;20398;-62
2022/12/06 10:37:50;;;;;;;15.90;14.40;;;5.90;99.90;;;;;;6157359;23;20467;-62
2022/12/06 10:40:24;;;;;;;13.57;12.27;;;6.00;99.90;;;;;;6157853;23;20398;-61
2022/12/06 10:42:58;;;;;;;14.40;13.00;;;6.00;99.90;;;;;;6157278;23;20448;-61
2022/12/06 10:48:20;;;;;;;15.50;14.10;;;6.00;99.90;;;;;;6157279;23;20434;-61
2022/12/06 10:50:54;;;;;;;15.83;14.37;;;6.00;99.90;;;;;;6166109;23;20856;-62
2022/12/06 10:53:25;;;;;;;16.83;15.23;;;5.90;99.90;;;;;;6157358;23;20398;-62
2022/12/06 10:55:58;;;;;;;15.63;14.17;;;6.00;99.90;;;;;;6156552;23;20735;-61
2022/12/06 10:58:32;;;;;;;15.23;13.83;;;6.00;99.90;;;;;;6156545;23;20402;-61
2022/12/06 11:01:01;;;;;;;16.50;14.37;;;5.90;99.90;;;;;;6156468;23;20447;-62
2022/12/06 11:03:34;;;;;;;15.20;13.67;;;5.90;99.90;;;;;;6156425;23;20436;-62
2022/12/06 11:06:07;;;;;;;15.40;14.00;;;5.80;99.90;;;;;;6156595;23;20405;-61
2022/12/06 11:08:38;;;;;;;15.97;14.37;;;5.70;99.90;;;;;;6157574;23;20452;-61
2022/12/06 11:11:14;;;;;;;12.73;11.60;;;5.70;99.90;;;;;;6156311;23;20496;-61
2022/12/06 11:13:46;;;;;;;13.43;12.13;;;5.70;99.90;;;;;;6157168;23;20437;-61
2022/12/06 11:16:18;;;;;;;13.50;12.10;;;5.60;99.90;;;;;;6156998;23;20398;-61
2022/12/06 11:18:45;;;;;;;13.13;11.87;;;5.60;99.90;;;;;;6157340;23;20405;-61
2022/12/06 11:21:20;;;;;;;13.30;12.10;;;5.60;99.90;;;;;;6159180;23;20438;-61
2022/12/06 11:23:56;;;;;;;13.13;11.93;;;5.60;99.90;;;;;;6156857;23;20404;-62
2022/12/06 11:26:34;;;;;;;12.47;11.37;;;5.60;99.90;;;;;;6156884;23;20448;-62
2022/12/06 11:29:05;;;;;;;10.50;9.50;;;5.60;99.90;;;;;;6157013;23;20401;-62
2022/12/06 11:31:36;;;;;;;11.27;10.20;;;5.60;99.90;;;;;;6156543;23;20441;-62
2022/12/06 11:34:04;;;;;;;11.33;9.60;;;5.60;99.90;;;;;;6157024;23;20505;-62
2022/12/06 11:36:31;;;;;;;11.50;10.40;;;5.60;99.90;;;;;;6157269;23;20417;-62
2022/12/06 11:38:59;;;;;;;10.70;9.60;;;5.60;99.90;;;;;;6156831;23;20422;-62
2022/12/06 11:41:29;;;;;;;10.03;9.13;;;5.60;99.90;;;;;;6156367;23;20433;-62
2022/12/06 11:43:57;;;;;;;9.33;8.53;;;5.60;99.90;;;;;;6156574;23;20398;-63
2022/12/06 11:46:24;;;;;;;8.97;8.17;;;5.60;99.90;;;;;;6156618;23;20464;-62
2022/12/06 11:48:51;;;;;;;9.57;8.77;;;5.60;99.90;;;;;;6157087;23;20449;-62
2022/12/06 11:51:22;;;;;;;10.83;8.90;;;5.60;99.90;;;;;;6156647;23;20442;-62
2022/12/06 11:54:00;;;;;;;9.93;8.70;;;5.70;99.90;;;;;;6156820;23;20397;-61
2022/12/06 11:56:31;;;;;;;9.93;8.93;;;5.70;99.90;;;;;;6156638;23;20397;-62
2022/12/06 11:59:23;;;;;;;10.10;9.13;;;5.70;99.90;;;;;;6157091;23;20401;-61
2022/12/06 12:01:51;;;;;;;8.87;8.17;;;5.70;99.90;;;;;;6157045;23;20469;-61
2022/12/06 12:04:25;;;;;;;9.10;8.40;;;5.60;99.90;;;;;;6156838;23;20481;-61
2022/12/06 12:06:55;;;;;;;7.83;7.13;;;5.60;99.90;;;;;;6156763;23;20405;-61
2022/12/06 12:09:22;;;;;;;8.07;7.47;;;5.60;99.90;;;;;;6156507;23;20424;-61
2022/12/06 12:11:59;;;;;;;7.27;6.77;;;5.50;99.90;;;;;;6156089;23;20945;-61
2022/12/06 12:14:29;;;;;;;7.73;7.23;;;5.50;99.90;;;;;;6156980;23;20766;-60
2022/12/06 12:16:58;;;;;;;7.63;6.90;;;5.50;99.90;;;;;;6156713;23;20398;-61
2022/12/06 12:19:33;;;;;;;7.87;7.27;;;5.50;99.90;;;;;;6156370;23;20420;-61
2022/12/06 12:22:13;;;;;;;6.97;6.47;;;5.50;99.90;;;;;;6156820;23;20480;-61
2022/12/06 12:24:45;;;;;;;7.30;6.70;;;5.50;99.90;;;;;;6157552;23;20397;-61
2022/12/06 12:27:35;;;;;;;7.60;6.97;;;5.50;99.90;;;;;;6157031;23;20404;-61
2022/12/06 12:30:26;;;;;;;7.10;6.47;;;5.50;99.90;;;;;;6156794;23;20394;-61
2022/12/06 12:33:10;;;;;;;6.10;5.50;;;5.50;99.90;;;;;;6156913;23;20425;-61
2022/12/06 12:35:38;;;;;;;5.40;5.00;;;5.50;99.90;;;;;;6157201;23;20457;-61
2022/12/06 12:38:13;;;;;;;5.20;4.90;;;5.60;99.90;;;;;;6156703;23;20750;-61
2022/12/06 12:40:42;;;;;;;5.40;5.00;;;5.60;99.90;;;;;;6158604;23;20502;-61
2022/12/06 12:43:17;;;;;;;5.63;5.23;;;5.60;99.90;;;;;;6158452;23;20417;-61
2022/12/06 12:46:02;;;;;;;6.30;5.80;;;5.70;99.90;;;;;;6158484;23;20401;-61
2022/12/06 12:48:29;;;;;;;6.53;6.00;;;5.70;99.90;;;;;;6157832;23;20863;-62
2022/12/06 12:50:58;;;;;;;5.80;5.30;;;5.80;99.90;;;;;;6157912;23;20495;-62
2022/12/06 12:53:30;;;;;;;5.77;4.80;;;5.70;99.90;;;;;;6157985;23;20484;-61
2022/12/06 12:56:06;;;;;;;6.30;5.33;;;5.80;99.90;;;;;;6157781;23;20440;-62
2022/12/06 12:58:35;;;;;;;13.27;11.03;;;5.80;99.90;;;;;;6158678;23;20393;-61
2022/12/06 13:01:05;;;;;;;7.93;5.70;;;5.90;99.90;;;;;;6158247;23;20444;-61
2022/12/06 13:03:33;;;;;;;6.03;5.43;;;5.90;99.90;;;;;;6159443;23;20448;-61
2022/12/06 13:06:00;;;;;;;5.70;5.30;;;5.90;99.90;;;;;;6158807;23;20769;-61
2022/12/06 13:08:33;;;;;;;5.73;5.23;;;5.90;99.90;;;;;;6160274;23;20476;-61
2022/12/06 13:11:02;;;;;;;5.70;5.20;;;5.80;99.90;;;;;;6161902;23;20756;-61
2022/12/06 13:13:34;;;;;;;5.20;4.80;;;5.80;99.90;;;;;;6162113;23;20460;-61
2022/12/06 13:16:06;;;;;;;5.43;5.00;;;5.80;99.90;;;;;;6159674;23;20404;-61
2022/12/06 13:18:38;;;;;;;5.10;4.70;;;5.70;99.90;;;;;;6158832;23;20408;-61
2022/12/06 13:21:14;;;;;;;5.30;4.90;;;5.60;99.90;;;;;;6157929;23;20456;-62
2022/12/06 13:23:41;;;;;;;6.20;5.70;;;5.60;99.90;;;;;;6157533;23;20405;-61
2022/12/06 13:26:26;;;;;;;5.87;5.27;;;5.60;99.90;;;;;;6157756;23;20414;-62
2022/12/06 13:28:56;;;;;;;6.30;5.80;;;5.50;99.90;;;;;;6157584;23;20401;-61
2022/12/06 13:31:28;;;;;;;6.13;5.73;;;5.60;99.90;;;;;;6157442;23;20930;-61
2022/12/06 13:33:58;;;;;;;6.50;6.10;;;5.60;99.90;;;;;;6158245;23;20448;-62
2022/12/06 13:36:26;;;;;;;7.30;6.60;;;5.60;99.90;;;;;;6157283;23;20417;-61
2022/12/06 13:38:54;;;;;;;6.30;5.70;;;5.60;99.90;;;;;;6158203;23;20441;-61
2022/12/06 13:44:41;;;;;;;6.87;6.37;;;5.60;99.90;;;;;;6167618;23;20381;-61
2022/12/06 13:47:47;;;;;;;6.43;5.77;;;5.70;99.90;;;;;;6157178;23;20464;-62
2022/12/06 13:50:51;;;;;;;7.60;6.90;;;5.60;99.90;;;;;;6157729;23;20394;-62
2022/12/06 13:53:19;;;;;;;7.73;7.10;;;5.60;99.90;;;;;;6157511;23;20445;-63
2022/12/06 13:55:51;;;;;;;7.77;7.17;;;5.60;99.90;;;;;;6157532;23;20417;-63
2022/12/06 13:58:39;;;;;;;9.33;8.47;;;5.50;99.90;;;;;;6157473;23;20458;-62
2022/12/06 14:01:39;;;;;;;7.87;7.27;;;5.60;99.90;;;;;;6157207;23;20456;-61
2022/12/06 14:04:34;;;;;;;7.43;6.80;;;5.60;99.90;;;;;;6158130;23;20405;-61
2022/12/06 14:07:03;;;;;;;7.87;7.27;;;5.50;99.90;;;;;;6157305;23;20398;-63
2022/12/06 14:09:39;;;;;;;8.47;7.83;;;5.50;99.90;;;;;;6157297;23;20420;-62
2022/12/06 14:12:08;;;;;;;7.90;7.30;;;5.50;99.90;;;;;;6157297;23;20441;-62
2022/12/06 14:14:35;;;;;;;8.60;8.00;;;5.50;99.90;;;;;;6157468;23;20464;-62
2022/12/06 14:17:05;;;;;;;9.43;8.60;;;5.60;99.90;;;;;;6157360;23;20413;-62
2022/12/06 14:19:41;;;;;;;8.90;8.20;;;5.60;99.90;;;;;;6156862;23;20464;-62
2022/12/06 14:22:20;;;;;;;8.10;7.50;;;5.50;99.90;;;;;;6157308;23;20484;-62
2022/12/06 14:25:00;;;;;;;8.00;7.40;;;5.50;99.90;;;;;;6157300;23;20398;-61
2022/12/06 14:27:28;;;;;;;8.30;7.63;;;5.40;99.90;;;;;;6157655;23;20413;-61
2022/12/06 14:30:08;;;;;;;7.20;6.70;;;5.40;99.90;;;;;;6157267;23;20472;-61
2022/12/06 14:32:36;;;;;;;7.07;6.57;;;5.50;99.90;;;;;;6157803;23;20441;-62
2022/12/06 14:35:08;;;;;;;8.57;7.87;;;5.50;99.90;;;;;;6156824;23;20965;-61
2022/12/06 14:37:34;;;;;;;7.80;7.07;;;5.50;99.90;;;;;;6157137;23;20783;-61
2022/12/06 14:40:04;;;;;;;7.87;7.27;;;5.50;99.90;;;;;;6157059;23;20420;-61
2022/12/06 14:45:16;;;;;;;8.00;7.10;;;5.60;99.90;;;;;;6157420;23;20384;-61
2022/12/06 14:47:44;;;;;;;8.50;7.70;;;5.60;99.90;;;;;;6157772;23;20417;-61
2022/12/06 14:50:30;;;;;;;8.27;7.67;;;5.50;99.90;;;;;;6157274;23;20452;-61
2022/12/06 14:53:01;;;;;;;8.40;7.80;;;5.50;99.90;;;;;;6157105;23;20425;-61
2022/12/06 14:55:30;;;;;;;7.97;7.37;;;5.50;99.90;;;;;;6156978;23;20429;-61
2022/12/06 14:57:59;;;;;;;8.70;7.90;;;5.50;99.90;;;;;;6157088;23;20437;-62
2022/12/06 15:00:33;;;;;;;8.77;8.07;;;5.50;99.90;;;;;;6156690;23;20414;-62
2022/12/06 15:03:05;;;;;;;7.83;7.23;;;5.50;99.90;;;;;;6156585;23;20410;-62
2022/12/06 15:05:38;;;;;;;8.13;7.40;;;5.50;99.90;;;;;;6156895;23;20402;-62
2022/12/06 15:08:19;;;;;;;8.20;7.50;;;5.50;99.90;;;;;;6162292;23;20414;-62
2022/12/06 15:10:56;;;;;;;8.03;7.43;;;5.50;99.90;;;;;;6167319;23;20433;-62
2022/12/06 15:13:22;;;;;;;8.23;7.53;;;5.50;99.90;;;;;;6163014;23;20770;-62
2022/12/06 15:16:00;;;;;;;8.60;7.87;;;5.60;99.90;;;;;;6158250;23;20413;-62
2022/12/06 15:18:28;;;;;;;8.87;8.17;;;5.60;99.90;;;;;;6157226;23;20162;-62
2022/12/06 15:20:56;;;;;;;9.37;8.50;;;5.60;99.90;;;;;;6156457;23;20743;-62
2022/12/06 15:23:34;;;;;;;11.63;10.63;;;5.60;99.90;;;;;;6156376;23;20395;-62
2022/12/06 15:26:01;;;;;;;13.43;12.23;;;5.60;99.90;;;;;;6157067;23;20404;-62
2022/12/06 15:28:28;;;;;;;12.43;11.43;;;5.60;99.90;;;;;;6156321;23;20464;-62
2022/12/06 15:30:55;;;;;;;10.97;10.07;;;5.60;99.90;;;;;;6157280;23;20437;-62
2022/12/06 15:33:23;;;;;;;8.97;8.27;;;5.60;99.90;;;;;;6156361;23;20437;-62
2022/12/06 15:35:50;;;;;;;11.20;10.13;;;5.70;99.90;;;;;;6156337;23;20417;-62
2022/12/06 15:38:18;;;;;;;9.97;8.97;;;5.70;99.90;;;;;;6156490;23;20480;-62
2022/12/06 15:40:48;;;;;;;9.73;8.93;;;5.70;99.90;;;;;;6156344;23;20804;-62
2022/12/06 15:43:24;;;;;;;9.90;9.10;;;5.70;99.90;;;;;;6156331;23;20418;-62
2022/12/06 15:45:52;;;;;;;8.57;7.87;;;5.70;99.90;;;;;;6156315;23;20398;-62
2022/12/06 15:48:19;;;;;;;10.60;9.60;;;5.80;99.90;;;;;;6156222;23;20413;-62
2022/12/06 15:50:46;;;;;;;10.23;9.30;;;5.80;99.90;;;;;;6155603;23;20438;-62
2022/12/06 15:53:14;;;;;;;10.20;9.27;;;5.80;99.90;;;;;;6156427;23;20445;-62
2022/12/06 15:55:43;;;;;;;10.67;9.70;;;5.80;99.90;;;;;;6156089;23;20449;-62
2022/12/06 15:58:09;;;;;;;9.97;9.10;;;5.80;99.90;;;;;;6156345;23;20414;-61
2022/12/06 16:00:36;;;;;;;9.73;8.83;;;5.80;99.90;;;;;;6156834;23;20445;-61
2022/12/06 16:03:03;;;;;;;10.17;9.37;;;5.70;99.90;;;;;;6156004;23;20394;-61
2022/12/06 16:05:30;;;;;;;9.90;9.00;;;5.70;99.90;;;;;;6156286;23;20421;-61
2022/12/06 16:07:56;;;;;;;9.17;8.47;;;5.70;99.90;;;;;;6156312;23;20468;-62
2022/12/06 16:10:23;;;;;;;9.33;8.63;;;5.70;99.90;;;;;;6156687;23;20417;-62
2022/12/06 16:15:35;;;;;;;8.77;8.07;;;5.60;99.90;;;;;;6158852;23;20385;-62
2022/12/06 16:18:02;;;;;;;10.60;9.70;;;5.60;99.90;;;;;;6158273;23;20439;-62
2022/12/06 16:20:32;;;;;;;9.63;8.80;;;5.50;99.90;;;;;;6158244;23;20422;-63
2022/12/06 16:25:43;;;;;;;27.77;24.87;;;5.50;99.90;;;;;;6159088;23;20457;-60
2022/12/06 16:28:11;;;;;;;11.03;9.87;;;5.50;99.90;;;;;;6158103;23;20449;-61
2022/12/06 16:30:39;;;;;;;8.83;8.03;;;5.50;99.90;;;;;;6157853;23;20433;-61
2022/12/06 16:33:06;;;;;;;9.60;8.80;;;5.50;99.90;;;;;;6158052;23;20437;-61
2022/12/06 16:35:33;;;;;;;8.40;7.80;;;5.50;99.90;;;;;;6168156;23;20425;-61
2022/12/06 16:38:00;;;;;;;10.23;9.23;;;5.50;99.90;;;;;;6158465;23;20420;-61
2022/12/06 16:40:28;;;;;;;9.00;8.30;;;5.50;99.90;;;;;;6157691;23;20413;-62
2022/12/06 16:42:54;;;;;;;9.47;8.67;;;5.50;99.90;;;;;;6158520;23;20758;-61
2022/12/06 16:45:23;;;;;;;9.37;8.67;;;5.50;99.90;;;;;;6158393;23;20435;-60
2022/12/06 16:47:50;;;;;;;8.97;8.27;;;5.50;99.90;;;;;;6158534;23;20398;-60
2022/12/06 16:50:22;;;;;;;9.20;8.40;;;5.50;99.90;;;;;;6158197;23;20413;-60
2022/12/06 16:52:48;;;;;;;9.30;8.60;;;5.50;99.90;;;;;;6158401;23;20504;-60
2022/12/06 16:55:15;;;;;;;9.23;8.53;;;5.60;99.90;;;;;;6158982;23;20418;-60
2022/12/06 16:57:41;;;;;;;10.23;9.33;;;5.60;99.90;;;;;;6158458;23;20871;-60
2022/12/06 17:00:10;;;;;;;9.40;8.70;;;5.50;99.90;;;;;;6158714;23;20945;-60
2022/12/06 17:02:38;;;;;;;11.20;10.20;;;5.50;99.90;;;;;;6128676;23;20438;-60
2022/12/06 17:05:08;;;;;;;9.90;9.00;;;5.60;99.90;;;;;;6128821;23;20899;-60
2022/12/06 17:07:37;;;;;;;9.90;9.20;;;5.60;99.90;;;;;;6129227;23;20414;-60
2022/12/06 17:10:05;;;;;;;10.10;9.20;;;5.50;99.90;;;;;;6128967;23;20497;-62
2022/12/06 17:12:32;;;;;;;9.73;8.83;;;5.50;99.90;;;;;;6128511;23;20433;-60
2022/12/06 17:14:59;;;;;;;9.10;8.40;;;5.50;99.90;;;;;;6128554;23;20415;-60
2022/12/06 17:17:28;;;;;;;8.40;7.70;;;5.50;99.90;;;;;;6128593;23;20414;-60
2022/12/06 17:19:56;;;;;;;8.77;8.13;;;5.40;99.90;;;;;;6128247;23;20497;-61
2022/12/06 17:22:23;;;;;;;9.23;8.37;;;5.50;99.90;;;;;;6128444;23;20434;-61
2022/12/06 17:24:49;;;;;;;9.27;8.37;;;5.50;99.90;;;;;;6128544;23;20414;-61
2022/12/06 17:27:16;;;;;;;9.20;8.40;;;5.50;99.90;;;;;;6128484;23;20446;-62
2022/12/06 17:29:44;;;;;;;9.50;8.70;;;5.50;99.90;;;;;;6129020;23;20421;-61
2022/12/06 17:32:11;;;;;;;9.23;8.53;;;5.50;99.90;;;;;;6129188;23;20466;-62
2022/12/06 17:34:38;;;;;;;9.40;8.60;;;5.50;99.90;;;;;;6128325;23;20422;-62
2022/12/06 17:37:06;;;;;;;9.17;8.37;;;5.50;99.90;;;;;;6128398;23;20421;-62
2022/12/06 17:39:33;;;;;;;8.40;7.80;;;5.50;99.90;;;;;;6128221;23;20915;-63
2022/12/06 17:44:43;;;;;;;8.33;7.40;;;5.60;99.90;;;;;;6128273;23;20743;-63
2022/12/06 17:47:11;;;;;;;9.17;8.40;;;5.50;99.90;;;;;;6128460;23;20449;-63
2022/12/06 17:49:37;;;;;;;9.10;8.33;;;5.60;99.90;;;;;;6128298;23;20449;-62
2022/12/06 17:52:06;;;;;;;8.30;7.60;;;5.60;99.90;;;;;;6128201;23;20518;-63
2022/12/06 17:54:33;;;;;;;8.57;7.87;;;5.60;99.90;;;;;;6128570;23;20521;-63
2022/12/06 17:56:59;;;;;;;8.97;8.27;;;5.60;99.90;;;;;;6129215;23;20741;-62
2022/12/06 17:59:29;;;;;;;8.60;7.90;;;5.60;99.90;;;;;;6128501;23;20414;-62
2022/12/06 18:01:59;;;;;;;9.00;8.20;;;5.60;99.90;;;;;;6149273;23;20495;-63
2022/12/06 18:04:26;;;;;;;9.87;9.07;;;5.70;99.90;;;;;;6157759;23;20954;-63
2022/12/06 18:06:53;;;;;;;8.70;8.00;;;5.70;99.90;;;;;;6157757;23;20465;-63
2022/12/06 18:09:21;;;;;;;9.17;8.47;;;5.70;99.90;;;;;;6158508;23;20789;-64
2022/12/06 18:11:48;;;;;;;10.13;9.23;;;5.70;99.90;;;;;;6170141;23;20437;-65
2022/12/06 18:14:17;;;;;;;8.40;7.80;;;5.60;99.90;;;;;;6172089;23;20438;-64
2022/12/06 18:16:46;;;;;;;9.30;8.60;;;5.60;99.90;;;;;;6167023;23;20414;-63
2022/12/06 18:19:15;;;;;;;9.80;8.87;;;5.60;99.90;;;;;;6157459;23;20413;-63
2022/12/06 18:21:42;;;;;;;9.60;8.80;;;5.60;99.90;;;;;;6157548;23;20433;-63